createdAt,value
2018-04-14T00:01:42.196Z,64.00
2018-04-14T00:04:13.508Z,62.28
2018-04-14T00:09:20.989Z,57.35
2018-04-14T00:12:04.231Z,56.92
2018-04-14T00:14:35.555Z,58.70
2018-04-14T00:17:06.764Z,64.90
2018-04-14T00:19:44.157Z,71.05
2018-04-14T00:22:15.520Z,63.40
2018-04-14T00:24:46.761Z,59.47
2018-04-14T00:27:17.762Z,62.40
2018-04-14T00:32:51.934Z,59.85
2018-04-14T00:35:39.766Z,56.53
2018-04-14T00:38:10.624Z,64.28
2018-04-14T00:40:43.107Z,63.25
2018-04-14T00:43:14.531Z,63.72
2018-04-14T00:45:46.417Z,61.20
2018-04-14T00:57:42.333Z,72.87
2018-04-14T01:03:27.771Z,66.12
2018-04-14T01:06:04.167Z,61.90
2018-04-14T01:11:26.941Z,73.72
2018-04-14T01:13:59.029Z,67.43
2018-04-14T01:16:39.444Z,67.15
2018-04-14T01:22:07.588Z,61.13
2018-04-14T01:24:39.987Z,66.50
2018-04-14T01:27:11.127Z,58.50
2018-04-14T01:29:42.395Z,69.28
2018-04-14T01:32:31.950Z,67.12
2018-04-14T01:35:07.576Z,66.60
2018-04-14T01:37:46.847Z,66.45
2018-04-14T01:43:46.826Z,65.03
2018-04-14T01:46:51.461Z,89.10
2018-04-14T01:50:00.345Z,85.53
2018-04-14T01:59:22.262Z,61.75
2018-04-14T02:11:08.244Z,65.28
2018-04-14T02:13:39.134Z,71.37
2018-04-14T02:16:10.066Z,70.28
2018-04-14T02:18:41.029Z,68.53
2018-04-14T02:21:11.790Z,66.40
2018-04-14T02:23:42.384Z,64.68
2018-04-14T02:26:13.735Z,73.10
2018-04-14T02:28:44.400Z,71.30
2018-04-14T02:31:19.779Z,63.80
2018-04-14T02:33:50.593Z,65.05
2018-04-14T02:36:21.390Z,65.82
2018-04-14T02:38:52.297Z,72.47
2018-04-14T02:41:23.429Z,67.62
2018-04-14T02:43:54.101Z,66.43
2018-04-14T02:46:24.971Z,66.12
2018-04-14T02:48:55.701Z,73.78
2018-04-14T02:51:26.389Z,66.05
2018-04-14T02:53:57.082Z,64.32
2018-04-14T02:56:27.855Z,63.58
2018-04-14T02:58:58.592Z,57.88
2018-04-14T03:01:29.261Z,62.00
2018-04-14T03:04:00.178Z,59.08
2018-04-14T03:06:31.318Z,68.93
2018-04-14T03:09:01.996Z,59.30
2018-04-14T03:11:32.985Z,63.40
2018-04-14T03:14:03.750Z,66.87
2018-04-14T03:16:34.627Z,65.87
2018-04-14T03:19:05.344Z,63.15
2018-04-14T03:21:36.021Z,63.30
2018-04-14T03:24:06.607Z,61.30
2018-04-14T03:26:37.731Z,63.67
2018-04-14T03:29:08.381Z,65.00
2018-04-14T03:34:39.598Z,70.35
2018-04-14T03:37:10.629Z,68.90
2018-04-14T03:39:41.560Z,68.70
2018-04-14T03:42:12.200Z,71.62
2018-04-14T03:44:42.907Z,70.72
2018-04-14T03:47:14.932Z,57.60
2018-04-14T03:49:46.015Z,61.33
2018-04-14T03:52:16.676Z,66.18
2018-04-14T03:54:48.467Z,61.78
2018-04-14T03:57:19.110Z,62.13
2018-04-14T03:59:50.033Z,66.20
2018-04-14T04:02:20.693Z,62.22
2018-04-14T04:04:51.732Z,69.25
2018-04-14T04:07:22.593Z,62.70
2018-04-14T04:09:53.332Z,70.50
2018-04-14T04:12:24.049Z,65.82
2018-04-14T04:14:55.072Z,59.33
2018-04-14T04:17:26.024Z,66.47
2018-04-14T04:20:30.696Z,64.05
2018-04-14T04:23:13.283Z,65.95
2018-04-14T04:25:44.757Z,64.82
2018-04-14T04:28:15.192Z,59.42
2018-04-14T04:30:45.755Z,65.07
2018-04-14T04:33:16.295Z,65.78
2018-04-14T04:35:46.858Z,64.12
2018-04-14T04:38:17.337Z,58.15
2018-04-14T04:40:48.863Z,77.50
2018-04-14T04:43:19.360Z,64.47
2018-04-14T04:45:50.119Z,72.45
2018-04-14T04:48:20.808Z,65.72
2018-04-14T04:50:51.501Z,67.85
2018-04-14T04:53:22.111Z,67.12
2018-04-14T04:55:53.157Z,63.78
2018-04-14T04:58:23.869Z,62.95
2018-04-14T05:00:55.271Z,67.75
2018-04-14T05:03:26.035Z,58.20
2018-04-14T05:05:56.639Z,63.58
2018-04-14T05:08:27.358Z,65.57
2018-04-14T05:11:01.386Z,69.50
2018-04-14T05:13:32.655Z,59.53
2018-04-14T05:16:15.432Z,60.38
2018-04-14T05:24:58.533Z,64.37
2018-04-14T05:30:50.294Z,62.22
2018-04-14T05:33:39.241Z,61.50
2018-04-14T05:36:11.756Z,61.10
2018-04-14T05:38:43.201Z,60.60
2018-04-14T05:41:14.594Z,57.95
2018-04-14T05:43:57.270Z,74.53
2018-04-14T05:46:43.550Z,69.37
2018-04-14T05:49:27.605Z,59.17
2018-04-14T05:51:58.865Z,65.95
2018-04-14T05:57:47.251Z,65.43
2018-04-14T06:00:18.009Z,62.13
2018-04-14T06:02:49.465Z,63.20
2018-04-14T06:05:20.209Z,65.43
2018-04-14T06:07:52.385Z,64.05
2018-04-14T06:10:23.282Z,66.80
2018-04-14T06:12:53.928Z,57.92
2018-04-14T06:15:24.437Z,57.50
2018-04-14T06:17:55.824Z,60.28
2018-04-14T06:20:26.541Z,65.82
2018-04-14T06:22:57.320Z,60.65
2018-04-14T06:25:29.611Z,61.10
2018-04-14T06:28:00.415Z,64.75
2018-04-14T06:30:30.990Z,56.83
2018-04-14T06:33:02.304Z,63.65
2018-04-14T06:42:07.836Z,63.08
2018-04-14T06:44:38.721Z,66.22
2018-04-14T06:47:09.926Z,70.15
2018-04-14T06:49:40.981Z,63.03
2018-04-14T06:52:11.799Z,65.70
2018-04-14T06:54:44.574Z,76.50
2018-04-14T07:03:26.395Z,89.22
2018-04-14T07:05:59.829Z,74.30
2018-04-14T07:08:31.306Z,76.37
2018-04-14T07:11:13.668Z,91.10
2018-04-14T07:16:26.645Z,67.22
2018-04-14T07:19:01.001Z,78.45
2018-04-14T07:21:48.708Z,71.18
2018-04-14T07:24:22.699Z,72.93
2018-04-14T07:26:55.625Z,69.55
2018-04-14T07:29:27.948Z,67.75
2018-04-14T07:32:00.867Z,70.20
2018-04-14T07:34:31.528Z,70.20
2018-04-14T08:36:03.567Z,82.10
2018-04-14T09:32:01.586Z,83.75
2018-04-14T09:48:03.086Z,91.30
2018-04-14T09:50:37.567Z,81.45
2018-04-14T09:56:34.326Z,94.47
2018-04-14T10:08:48.101Z,73.10
2018-04-14T10:11:19.084Z,77.80
2018-04-14T10:22:28.472Z,78.65
2018-04-14T10:25:17.413Z,72.20
2018-04-14T10:31:23.205Z,74.37
2018-04-14T10:34:11.893Z,76.57
2018-04-14T10:39:28.039Z,71.93
2018-04-14T10:42:00.116Z,67.70
2018-04-14T10:44:31.062Z,63.95
2018-04-14T10:47:03.937Z,72.60
2018-04-14T10:49:34.834Z,72.07
2018-04-14T10:52:05.903Z,78.45
2018-04-14T10:54:36.676Z,73.78
2018-04-14T10:57:13.325Z,76.60
2018-04-14T10:59:44.213Z,75.95
2018-04-14T11:12:13.711Z,81.63
2018-04-14T11:14:46.931Z,76.15
2018-04-14T11:17:26.208Z,77.55
2018-04-14T11:20:00.408Z,80.85
2018-04-14T11:22:53.730Z,78.10
2018-04-14T11:25:53.310Z,81.60
2018-04-14T11:28:28.786Z,82.10
2018-04-14T11:30:59.733Z,77.72
2018-04-14T11:33:31.451Z,74.40
2018-04-14T11:36:02.898Z,78.85
2018-04-14T11:38:33.970Z,73.85
2018-04-14T11:41:13.851Z,88.82
2018-04-14T11:43:44.764Z,82.88
2018-04-14T11:46:17.540Z,81.12
2018-04-14T11:48:48.413Z,77.60
2018-04-14T11:51:20.233Z,83.62
2018-04-14T11:53:51.291Z,76.72
2018-04-14T11:56:23.677Z,77.45
2018-04-14T11:58:54.602Z,77.50
2018-04-14T12:01:28.930Z,80.78
2018-04-14T12:04:00.647Z,76.85
2018-04-14T12:06:31.846Z,76.05
2018-04-14T12:09:04.832Z,78.90
2018-04-14T12:11:49.558Z,77.75
2018-04-14T12:14:42.424Z,82.00
2018-04-14T12:17:17.396Z,78.15
2018-04-14T12:19:49.498Z,78.70
2018-04-14T12:22:38.486Z,84.50
2018-04-14T12:25:30.733Z,91.18
2018-04-14T13:25:57.365Z,76.75
2018-04-14T13:28:30.388Z,83.95
2018-04-14T13:31:05.898Z,80.47
2018-04-14T13:33:37.269Z,84.30
2018-04-14T13:36:09.242Z,91.97
2018-04-14T13:38:41.160Z,86.18
2018-04-14T13:41:15.152Z,85.30
2018-04-14T13:43:50.789Z,84.03
2018-04-14T13:47:04.538Z,84.32
2018-04-14T13:50:02.389Z,96.95
2018-04-14T13:56:22.715Z,97.82
2018-04-14T13:58:55.214Z,99.35
2018-04-14T14:01:35.146Z,93.68
2018-04-14T14:04:11.955Z,99.22
2018-04-14T14:06:45.264Z,91.35
2018-04-14T14:12:39.293Z,89.32
2018-04-14T14:15:14.508Z,77.10
2018-04-14T14:17:45.541Z,82.53
2018-04-14T14:20:18.104Z,84.85
2018-04-14T14:22:49.802Z,80.40
2018-04-14T14:25:22.325Z,84.97
2018-04-14T14:27:53.863Z,75.45
2018-04-14T14:30:24.888Z,85.28
2018-04-14T14:32:56.143Z,79.43
2018-04-14T14:35:27.177Z,87.07
2018-04-14T14:38:03.551Z,79.25
2018-04-14T14:40:37.922Z,83.65
2018-04-14T14:43:11.312Z,84.57
2018-04-14T14:45:43.302Z,85.00
2018-04-14T14:48:14.372Z,82.47
2018-04-14T14:50:45.367Z,82.43
2018-04-14T14:53:17.481Z,81.15
2018-04-14T14:55:48.275Z,83.40
2018-04-14T14:58:19.980Z,79.47
2018-04-14T15:00:51.567Z,78.85
2018-04-14T15:03:22.919Z,86.95
2018-04-14T15:05:53.653Z,85.20
2018-04-14T15:08:24.536Z,87.12
2018-04-14T15:10:55.236Z,79.05
2018-04-14T15:13:25.865Z,83.70
2018-04-14T15:16:02.870Z,81.95
2018-04-14T15:18:35.279Z,76.82
2018-04-14T15:21:06.258Z,74.22
2018-04-14T15:23:36.907Z,86.28
2018-04-14T15:26:07.623Z,80.22
2018-04-14T15:28:39.913Z,88.15
2018-04-14T15:31:14.136Z,91.40
2018-04-14T15:33:48.801Z,86.78
2018-04-14T15:36:26.883Z,86.35
2018-04-14T15:38:57.795Z,88.70
2018-04-14T15:41:28.677Z,88.00
2018-04-14T15:44:06.511Z,77.05
2018-04-14T15:46:50.157Z,83.10
2018-04-14T15:49:42.581Z,96.05
2018-04-14T15:52:13.835Z,81.57
2018-04-14T15:54:47.656Z,79.78
2018-04-14T15:57:18.852Z,80.65
2018-04-14T15:59:50.109Z,81.90
2018-04-14T16:02:21.288Z,84.00
2018-04-14T16:04:53.457Z,90.22
2018-04-14T16:07:24.955Z,80.05
2018-04-14T16:09:59.429Z,107.07
2018-04-14T16:12:32.827Z,92.72
2018-04-14T16:15:05.391Z,83.68
2018-04-14T16:17:37.666Z,89.00
2018-04-14T16:20:08.876Z,85.28
2018-04-14T16:22:42.419Z,85.20
2018-04-14T16:25:15.622Z,93.32
2018-04-14T16:27:48.384Z,87.50
2018-04-14T16:30:21.445Z,84.55
2018-04-14T16:32:52.897Z,92.20
2018-04-14T16:35:30.617Z,87.50
2018-04-14T16:38:02.204Z,87.60
2018-04-14T16:40:34.633Z,87.88
2018-04-14T16:43:06.672Z,89.10
2018-04-14T16:45:38.058Z,88.75
2018-04-14T16:48:09.089Z,86.15
2018-04-14T16:50:40.112Z,91.10
2018-04-14T16:53:12.469Z,97.95
2018-04-14T16:55:43.970Z,94.03
2018-04-14T16:58:16.668Z,84.18
2018-04-14T17:00:49.933Z,86.07
2018-04-14T17:03:21.285Z,82.30
2018-04-14T17:05:54.051Z,90.78
2018-04-14T17:08:26.537Z,100.53
2018-04-14T17:10:57.842Z,86.93
2018-04-14T17:13:32.214Z,88.82
2018-04-14T17:16:04.639Z,85.15
2018-04-14T17:18:38.046Z,84.90
2018-04-14T17:21:14.645Z,84.68
2018-04-14T17:23:48.098Z,88.85
2018-04-14T17:26:19.455Z,84.15
2018-04-14T17:28:51.797Z,89.28
2018-04-14T17:31:24.870Z,95.45
2018-04-14T17:33:58.722Z,97.25
2018-04-14T17:36:33.108Z,95.62
2018-04-14T17:39:09.166Z,90.78
2018-04-14T17:41:42.451Z,97.37
2018-04-14T17:44:17.034Z,83.10
2018-04-14T17:49:41.700Z,89.78
2018-04-14T17:52:12.464Z,96.95
2018-04-14T17:54:43.309Z,89.47
2018-04-14T17:57:14.270Z,89.47
2018-04-14T17:59:45.135Z,90.25
2018-04-14T18:02:24.540Z,89.50
2018-04-14T18:04:55.441Z,82.45
2018-04-14T18:07:27.456Z,81.05
2018-04-14T18:10:00.656Z,82.72
2018-04-14T18:12:32.086Z,76.25
2018-04-14T18:15:03.090Z,78.45
2018-04-14T18:17:34.967Z,90.90
2018-04-14T18:20:06.427Z,84.68
2018-04-14T18:22:37.656Z,84.68
2018-04-14T18:25:08.642Z,80.07
2018-04-14T18:27:39.674Z,87.95
2018-04-14T18:30:10.679Z,90.50
2018-04-14T18:32:46.373Z,84.18
2018-04-14T18:35:30.065Z,92.90
2018-04-14T18:38:13.274Z,86.65
2018-04-14T18:40:44.145Z,88.20
2018-04-14T18:43:15.040Z,88.53
2018-04-14T18:45:46.194Z,84.60
2018-04-14T18:48:17.057Z,75.85
2018-04-14T18:50:47.930Z,72.90
2018-04-14T18:53:27.091Z,74.70
2018-04-14T18:55:59.217Z,80.13
2018-04-14T18:58:32.197Z,79.28
2018-04-14T19:03:53.869Z,74.45
2018-04-14T19:06:31.859Z,89.22
2018-04-14T19:09:07.737Z,81.67
2018-04-14T19:11:39.678Z,81.40
2018-04-14T19:14:11.678Z,91.37
2018-04-14T19:16:42.788Z,85.55
2018-04-14T19:19:13.938Z,81.45
2018-04-14T19:21:49.170Z,85.20
2018-04-14T19:48:34.925Z,78.78
2018-04-14T19:51:11.140Z,82.85
2018-04-14T19:53:50.738Z,77.40
2018-04-14T19:56:22.784Z,81.10
2018-04-14T19:58:59.639Z,92.28
2018-04-14T20:01:30.782Z,78.90
2018-04-14T20:04:02.613Z,85.28
2018-04-14T20:06:42.615Z,84.85
2018-04-14T20:09:14.423Z,76.22
2018-04-14T20:21:31.606Z,83.32
2018-04-14T20:27:02.802Z,81.30
2018-04-14T20:29:34.154Z,93.20
2018-04-14T20:42:17.895Z,96.78
2018-04-14T20:58:01.095Z,78.03
2018-04-14T21:00:44.717Z,84.70
2018-04-14T21:03:21.384Z,79.85
2018-04-14T21:06:06.703Z,69.35
2018-04-14T21:08:40.123Z,75.72
2018-04-14T21:11:11.826Z,79.68
2018-04-14T21:13:44.053Z,73.00
2018-04-14T21:23:00.025Z,68.15
2018-04-14T21:31:38.819Z,77.47
2018-04-14T21:34:10.609Z,78.32
2018-04-14T21:36:42.018Z,81.18
2018-04-14T21:39:17.891Z,84.97
2018-04-14T21:41:50.026Z,80.43
2018-04-14T21:44:22.521Z,72.82
2018-04-14T21:46:55.263Z,77.82
2018-04-14T21:49:26.904Z,88.97
2018-04-14T21:51:58.210Z,81.07
2018-04-14T22:12:40.183Z,89.07
2018-04-14T22:15:13.159Z,86.05
2018-04-14T22:17:51.953Z,79.32
2018-04-14T22:20:23.435Z,78.93
2018-04-14T22:26:26.853Z,81.95
2018-04-14T22:34:54.605Z,68.22
2018-04-14T22:37:27.649Z,66.35
2018-04-14T22:40:06.063Z,68.70
2018-04-14T22:42:38.046Z,70.22
2018-04-14T22:48:12.213Z,68.03
2018-04-14T23:01:21.296Z,89.87
2018-04-14T23:10:23.522Z,75.75
2018-04-14T23:12:55.470Z,68.47
2018-04-14T23:24:38.864Z,76.50
2018-04-14T23:49:36.926Z,66.95
2018-04-14T23:55:11.208Z,74.55
